Time;durP1;ratioP1;P1;durP2;ratioP2;P2;SDS_P1;SDS_P2;PMS_P1;PMS_P2;Temp;Humidity;BMP_temperature;BMP_pressure;BME280_temperature;BME280_humidity;BME280_pressure;Samples;Min_cycle;Max_cycle;Signal;HPM_P1;HPM_P2
2024/04/19 00:00:22;;;;;;;5.55;3.58;;;;;;;;;;5453471;26;19998;-78
2024/04/19 00:03:08;;;;;;;4.80;3.42;;;;;;;;;;5459566;26;19998;-77
2024/04/19 00:05:53;;;;;;;4.55;2.97;;;;;;;;;;5461688;26;19998;-79
2024/04/19 00:08:38;;;;;;;5.90;3.22;;;;;;;;;;5460572;26;19998;-79
2024/04/19 00:11:23;;;;;;;6.63;3.60;;;;;;;;;;5470628;26;19998;-79
2024/04/19 00:14:09;;;;;;;3.83;2.75;;;;;;;;;;5442184;26;20019;-78
2024/04/19 00:16:54;;;;;;;6.78;3.10;;;;;;;;;;5450030;26;20006;-78
2024/04/19 00:19:39;;;;;;;7.05;3.30;;;;;;;;;;5466229;26;20002;-78
2024/04/19 00:22:24;;;;;;;5.38;3.25;;;;;;;;;;5446747;26;20075;-78
2024/04/19 00:25:10;;;;;;;6.05;3.13;;;;;;;;;;5454289;26;19990;-77
2024/04/19 00:27:55;;;;;;;4.43;3.10;;;;;;;;;;5470736;25;20013;-78
2024/04/19 00:30:40;;;;;;;5.88;3.15;;;;;;;;;;5525669;25;20076;-78
2024/04/19 00:33:26;;;;;;;10.70;3.63;;;;;;;;;;5522039;25;20019;-78
2024/04/19 00:36:11;;;;;;;6.00;3.20;;;;;;;;;;5487758;26;20002;-79
2024/04/19 00:38:56;;;;;;;3.00;2.50;;;;;;;;;;5490706;25;20001;-78
2024/04/19 00:41:41;;;;;;;8.32;3.25;;;;;;;;;;5488645;26;20001;-79
2024/04/19 00:44:30;;;;;;;8.98;3.38;;;;;;;;;;5488541;26;19997;-79
2024/04/19 00:47:15;;;;;;;5.35;3.05;;;;;;;;;;5496072;26;20006;-78
2024/04/19 00:50:01;;;;;;;6.10;3.50;;;;;;;;;;5490137;26;20041;-78
2024/04/19 00:52:46;;;;;;;5.72;2.78;;;;;;;;;;5477216;26;20002;-78
2024/04/19 00:55:32;;;;;;;5.20;2.65;;;;;;;;;;5459980;26;20012;-78
2024/04/19 00:58:18;;;;;;;4.90;3.13;;;;;;;;;;5451424;26;20022;-78
2024/04/19 01:01:04;;;;;;;7.22;3.00;;;;;;;;;;5492506;26;20143;-78
2024/04/19 01:03:49;;;;;;;5.85;3.10;;;;;;;;;;5489404;25;20069;-78
2024/04/19 01:06:34;;;;;;;6.65;3.30;;;;;;;;;;5451695;26;20454;-78
2024/04/19 01:09:20;;;;;;;6.43;4.00;;;;;;;;;;5456557;25;20013;-79
2024/04/19 01:12:06;;;;;;;9.38;3.50;;;;;;;;;;5484233;26;20006;-77
2024/04/19 01:14:51;;;;;;;8.05;3.47;;;;;;;;;;5461936;26;19994;-77
2024/04/19 01:17:36;;;;;;;7.47;3.70;;;;;;;;;;5458514;26;20009;-78
2024/04/19 01:20:21;;;;;;;5.68;3.42;;;;;;;;;;5462687;25;19993;-79
2024/04/19 01:23:07;;;;;;;7.88;4.45;;;;;;;;;;5488016;26;20194;-78
2024/04/19 01:25:53;;;;;;;6.78;3.75;;;;;;;;;;5487298;26;20013;-78
2024/04/19 01:28:39;;;;;;;6.00;4.22;;;;;;;;;;5487603;26;20074;-78
2024/04/19 01:31:24;;;;;;;5.95;3.53;;;;;;;;;;5468584;26;20490;-78
2024/04/19 01:34:09;;;;;;;5.78;3.40;;;;;;;;;;5487019;25;20467;-79
2024/04/19 01:36:54;;;;;;;7.05;3.47;;;;;;;;;;5501590;26;19997;-79
2024/04/19 01:39:40;;;;;;;4.78;3.20;;;;;;;;;;5486775;26;20068;-78
2024/04/19 01:42:26;;;;;;;4.80;3.10;;;;;;;;;;5458348;26;20009;-78
2024/04/19 01:45:11;;;;;;;5.53;3.60;;;;;;;;;;5459999;26;20013;-78
2024/04/19 01:47:56;;;;;;;6.53;3.33;;;;;;;;;;5476758;26;20392;-78
2024/04/19 01:50:41;;;;;;;6.63;4.45;;;;;;;;;;5454683;26;20002;-78
2024/04/19 01:53:26;;;;;;;6.47;3.92;;;;;;;;;;5473578;26;19995;-77
2024/04/19 01:56:12;;;;;;;6.38;3.63;;;;;;;;;;5475132;26;20002;-79
2024/04/19 01:58:57;;;;;;;6.20;3.58;;;;;;;;;;5454184;26;20326;-77
2024/04/19 02:01:42;;;;;;;7.10;3.72;;;;;;;;;;5461828;25;20370;-77
2024/04/19 02:04:28;;;;;;;5.20;3.42;;;;;;;;;;5497679;25;20008;-77
2024/04/19 02:07:13;;;;;;;6.30;3.38;;;;;;;;;;5480609;26;20040;-77
2024/04/19 02:09:59;;;;;;;6.75;3.38;;;;;;;;;;5518663;25;20064;-77
2024/04/19 02:12:44;;;;;;;6.03;3.60;;;;;;;;;;5472508;25;20052;-77
2024/04/19 02:15:29;;;;;;;6.63;3.60;;;;;;;;;;5495091;26;20023;-77
2024/04/19 02:18:14;;;;;;;5.72;3.50;;;;;;;;;;5494377;26;20008;-77
2024/04/19 02:21:00;;;;;;;5.43;3.33;;;;;;;;;;5528343;25;19997;-77
2024/04/19 02:23:45;;;;;;;7.78;3.92;;;;;;;;;;5528367;25;19989;-77
2024/04/19 02:26:32;;;;;;;7.32;3.80;;;;;;;;;;5497039;26;20030;-77
2024/04/19 02:32:21;;;;;;;6.55;3.40;;;;;;;;;;5494021;26;19998;-78
2024/04/19 02:35:06;;;;;;;7.43;3.42;;;;;;;;;;5484271;26;20031;-78
2024/04/19 02:37:52;;;;;;;5.72;3.22;;;;;;;;;;5457908;26;19994;-79
2024/04/19 02:40:37;;;;;;;8.55;3.90;;;;;;;;;;5499331;25;20004;-78
2024/04/19 02:43:22;;;;;;;4.55;2.92;;;;;;;;;;5528881;25;20573;-79
2024/04/19 02:46:07;;;;;;;6.57;3.85;;;;;;;;;;5476978;26;20045;-78
2024/04/19 02:48:52;;;;;;;5.90;3.72;;;;;;;;;;5505831;25;19997;-79
2024/04/19 02:51:38;;;;;;;7.18;4.40;;;;;;;;;;5530765;25;19997;-79
2024/04/19 02:54:23;;;;;;;5.72;3.55;;;;;;;;;;5527229;25;20004;-79
2024/04/19 02:57:08;;;;;;;7.47;4.60;;;;;;;;;;5481981;25;19993;-77
2024/04/19 02:59:53;;;;;;;8.40;3.97;;;;;;;;;;5529484;25;20016;-78
2024/04/19 03:02:39;;;;;;;7.25;4.32;;;;;;;;;;5508332;25;20006;-78
2024/04/19 03:05:24;;;;;;;6.05;4.25;;;;;;;;;;5518943;25;20073;-78
2024/04/19 03:08:09;;;;;;;9.43;4.50;;;;;;;;;;5457909;26;20017;-78
2024/04/19 03:10:54;;;;;;;6.97;4.03;;;;;;;;;;5452883;26;19998;-77
2024/04/19 03:13:39;;;;;;;7.90;4.30;;;;;;;;;;5473330;25;20456;-77
2024/04/19 03:16:25;;;;;;;8.05;4.68;;;;;;;;;;5490016;26;20409;-77
2024/04/19 03:19:10;;;;;;;6.63;4.30;;;;;;;;;;5498557;25;19996;-77
2024/04/19 03:21:55;;;;;;;7.20;4.72;;;;;;;;;;5526464;25;20001;-78
2024/04/19 03:24:40;;;;;;;8.98;4.72;;;;;;;;;;5513742;26;20001;-78
2024/04/19 03:27:26;;;;;;;6.70;4.43;;;;;;;;;;5453144;26;20070;-78
2024/04/19 03:30:11;;;;;;;7.53;4.00;;;;;;;;;;5479443;26;20468;-78
2024/04/19 03:32:56;;;;;;;9.77;5.13;;;;;;;;;;5509430;26;20069;-78
2024/04/19 03:35:41;;;;;;;6.55;4.30;;;;;;;;;;5491518;26;20009;-78
2024/04/19 03:38:28;;;;;;;8.93;5.25;;;;;;;;;;5515224;26;19997;-78
2024/04/19 03:41:13;;;;;;;7.38;4.47;;;;;;;;;;5514724;26;20029;-78
2024/04/19 03:47:06;;;;;;;10.00;5.30;;;;;;;;;;5505019;26;20464;-78
2024/04/19 03:49:51;;;;;;;9.02;5.60;;;;;;;;;;5466862;26;20456;-78
2024/04/19 03:52:36;;;;;;;9.15;5.47;;;;;;;;;;5486834;26;20009;-79
2024/04/19 03:55:21;;;;;;;10.20;6.07;;;;;;;;;;5505855;26;20074;-78
2024/04/19 03:58:10;;;;;;;11.05;6.70;;;;;;;;;;5469914;26;20075;-77
2024/04/19 04:00:55;;;;;;;10.00;5.63;;;;;;;;;;5450166;26;20042;-78
2024/04/19 04:03:40;;;;;;;8.07;5.10;;;;;;;;;;5457753;26;20035;-79
2024/04/19 04:06:25;;;;;;;9.07;5.35;;;;;;;;;;5464491;26;20747;-79
2024/04/19 04:09:11;;;;;;;9.32;5.32;;;;;;;;;;5484657;26;20001;-77
2024/04/19 04:11:56;;;;;;;12.10;4.88;;;;;;;;;;5455804;26;20074;-77
2024/04/19 04:14:41;;;;;;;11.40;5.43;;;;;;;;;;5514561;26;20448;-77
2024/04/19 04:17:26;;;;;;;9.65;5.43;;;;;;;;;;5513157;26;20355;-77
2024/04/19 04:20:12;;;;;;;9.18;5.78;;;;;;;;;;5465952;26;20067;-78
2024/04/19 04:22:58;;;;;;;11.60;5.97;;;;;;;;;;5452016;26;19998;-77
2024/04/19 04:25:43;;;;;;;10.05;6.10;;;;;;;;;;5485972;26;20066;-78
2024/04/19 04:28:28;;;;;;;9.55;5.55;;;;;;;;;;5455536;26;20520;-78
2024/04/19 04:31:14;;;;;;;10.85;6.13;;;;;;;;;;5449761;26;20008;-78
2024/04/19 04:33:59;;;;;;;10.27;6.22;;;;;;;;;;5490229;26;20313;-78
2024/04/19 04:36:44;;;;;;;10.48;5.72;;;;;;;;;;5454789;26;20493;-78
2024/04/19 04:39:29;;;;;;;11.18;5.93;;;;;;;;;;5452529;26;20002;-78
2024/04/19 04:42:14;;;;;;;10.98;6.82;;;;;;;;;;5457066;26;19994;-77
2024/04/19 04:45:00;;;;;;;8.70;5.47;;;;;;;;;;5465283;26;19994;-77
2024/04/19 04:47:45;;;;;;;13.98;7.50;;;;;;;;;;5475254;26;20006;-77
2024/04/19 04:50:30;;;;;;;9.50;5.75;;;;;;;;;;5484834;26;19993;-77
2024/04/19 04:53:16;;;;;;;9.38;5.97;;;;;;;;;;5470793;26;20098;-77
2024/04/19 04:56:02;;;;;;;10.55;6.22;;;;;;;;;;5462446;26;20420;-77
2024/04/19 04:58:48;;;;;;;11.82;5.85;;;;;;;;;;5481444;26;19997;-78
2024/04/19 05:01:33;;;;;;;10.35;5.05;;;;;;;;;;5488518;26;19994;-77
2024/04/19 05:04:18;;;;;;;9.07;5.90;;;;;;;;;;5478870;26;20017;-78
2024/04/19 05:07:03;;;;;;;12.85;5.88;;;;;;;;;;5455763;26;20037;-78
2024/04/19 05:09:51;;;;;;;10.98;6.28;;;;;;;;;;5475787;26;19994;-78
2024/04/19 05:12:36;;;;;;;10.15;5.57;;;;;;;;;;5483986;26;20314;-78
2024/04/19 05:15:21;;;;;;;11.57;6.40;;;;;;;;;;5470094;26;20009;-78
2024/04/19 05:18:07;;;;;;;9.57;5.75;;;;;;;;;;5456729;26;20009;-77
2024/04/19 05:20:52;;;;;;;13.20;6.80;;;;;;;;;;5485005;26;20020;-78
2024/04/19 05:23:38;;;;;;;13.73;6.00;;;;;;;;;;5489956;26;20001;-78
2024/04/19 05:26:23;;;;;;;10.48;5.95;;;;;;;;;;5491022;26;19997;-79
2024/04/19 05:29:09;;;;;;;12.50;6.88;;;;;;;;;;5487051;26;20045;-79
2024/04/19 05:31:57;;;;;;;10.65;6.13;;;;;;;;;;5475322;26;19998;-79
2024/04/19 05:34:42;;;;;;;11.63;5.80;;;;;;;;;;5475538;26;19997;-78
2024/04/19 05:37:27;;;;;;;12.93;7.07;;;;;;;;;;5516579;26;20034;-76
2024/04/19 05:40:13;;;;;;;8.70;4.88;;;;;;;;;;5516522;26;20128;-78
2024/04/19 05:42:58;;;;;;;12.75;6.65;;;;;;;;;;5486267;26;20001;-78
2024/04/19 05:45:43;;;;;;;10.43;6.53;;;;;;;;;;5480635;26;20022;-76
2024/04/19 05:48:29;;;;;;;12.25;6.88;;;;;;;;;;5488882;26;19998;-77
2024/04/19 05:51:14;;;;;;;11.00;5.97;;;;;;;;;;5477443;26;20637;-77
2024/04/19 05:53:59;;;;;;;9.00;5.07;;;;;;;;;;5484196;26;20009;-77
2024/04/19 05:56:44;;;;;;;11.68;6.20;;;;;;;;;;5489348;26;20668;-79
2024/04/19 05:59:30;;;;;;;12.95;5.82;;;;;;;;;;5475033;26;20074;-77
2024/04/19 06:02:15;;;;;;;10.30;5.82;;;;;;;;;;5474383;26;19997;-78
2024/04/19 06:05:00;;;;;;;12.95;5.03;;;;;;;;;;5470051;26;19998;-77
2024/04/19 06:07:46;;;;;;;11.98;5.60;;;;;;;;;;5463358;26;20512;-78
2024/04/19 06:10:31;;;;;;;8.13;4.70;;;;;;;;;;5463671;26;20427;-77
2024/04/19 06:13:16;;;;;;;8.60;5.53;;;;;;;;;;5475161;26;20432;-78
2024/04/19 06:16:02;;;;;;;8.02;5.28;;;;;;;;;;5481636;26;20001;-78
2024/04/19 06:18:47;;;;;;;12.10;5.05;;;;;;;;;;5489790;26;20041;-86
2024/04/19 06:21:32;;;;;;;9.52;4.80;;;;;;;;;;5492864;26;20376;-86
2024/04/19 06:24:17;;;;;;;8.32;5.25;;;;;;;;;;5503789;26;20018;-86
2024/04/19 06:27:03;;;;;;;14.73;5.30;;;;;;;;;;5492021;26;20011;-80
2024/04/19 06:29:51;;;;;;;10.02;5.25;;;;;;;;;;5483058;26;20317;-85
2024/04/19 06:32:36;;;;;;;9.00;4.75;;;;;;;;;;5490907;26;20004;-84
2024/04/19 06:35:22;;;;;;;8.20;4.88;;;;;;;;;;5457624;26;20018;-87
2024/04/19 06:38:08;;;;;;;11.23;4.70;;;;;;;;;;5445620;26;19999;-85
2024/04/19 06:40:54;;;;;;;8.45;4.15;;;;;;;;;;5444289;26;20013;-85
2024/04/19 06:43:39;;;;;;;7.70;4.45;;;;;;;;;;5462668;26;20007;-81
2024/04/19 06:46:24;;;;;;;7.57;4.05;;;;;;;;;;5453533;26;19999;-81
2024/04/19 06:49:09;;;;;;;8.68;4.55;;;;;;;;;;5457120;26;20006;-80
2024/04/19 06:51:54;;;;;;;7.95;4.45;;;;;;;;;;5479990;26;20034;-81
2024/04/19 06:54:40;;;;;;;8.80;4.32;;;;;;;;;;5470372;26;20030;-81
2024/04/19 06:57:25;;;;;;;6.05;4.10;;;;;;;;;;5468981;26;20021;-81
2024/04/19 07:00:11;;;;;;;9.80;3.72;;;;;;;;;;5468961;26;20014;-81
2024/04/19 07:02:56;;;;;;;6.57;4.43;;;;;;;;;;5490977;26;20072;-83
2024/04/19 07:05:42;;;;;;;6.88;3.58;;;;;;;;;;5465610;26;20037;-80
2024/04/19 07:08:27;;;;;;;9.55;4.05;;;;;;;;;;5489530;26;20001;-82
2024/04/19 07:11:12;;;;;;;7.45;3.60;;;;;;;;;;5479425;26;20001;-81
2024/04/19 07:13:58;;;;;;;6.78;3.70;;;;;;;;;;5480207;26;20017;-82
2024/04/19 07:16:43;;;;;;;8.18;4.00;;;;;;;;;;5479600;26;20026;-80
2024/04/19 07:19:29;;;;;;;9.25;4.43;;;;;;;;;;5480043;26;20006;-80
2024/04/19 07:22:14;;;;;;;5.95;4.10;;;;;;;;;;5483399;26;20077;-80
2024/04/19 07:28:14;;;;;;;8.65;3.97;;;;;;;;;;5489676;26;20026;-80
2024/04/19 07:31:00;;;;;;;7.15;4.18;;;;;;;;;;5508567;26;20009;-82
2024/04/19 07:33:45;;;;;;;6.15;3.67;;;;;;;;;;5475713;26;20029;-80
2024/04/19 07:36:31;;;;;;;7.35;4.07;;;;;;;;;;5482878;26;20071;-81
2024/04/19 07:39:16;;;;;;;7.57;4.10;;;;;;;;;;5479901;26;20097;-83
2024/04/19 07:42:01;;;;;;;6.75;4.10;;;;;;;;;;5484553;25;20013;-85
2024/04/19 07:44:47;;;;;;;6.22;3.60;;;;;;;;;;5487677;26;20006;-83
2024/04/19 07:47:32;;;;;;;7.38;4.47;;;;;;;;;;5494169;26;20323;-82
2024/04/19 07:50:17;;;;;;;7.35;4.53;;;;;;;;;;5495894;26;19993;-79
2024/04/19 07:53:02;;;;;;;13.73;4.50;;;;;;;;;;5497936;26;19993;-76
2024/04/19 07:55:48;;;;;;;7.65;4.13;;;;;;;;;;5500512;26;20026;-82
2024/04/19 07:58:33;;;;;;;5.00;3.63;;;;;;;;;;5467283;26;20061;-81
2024/04/19 08:01:18;;;;;;;7.88;4.53;;;;;;;;;;5473553;26;20294;-81
2024/04/19 08:04:04;;;;;;;7.40;3.92;;;;;;;;;;5509673;26;20005;-82
2024/04/19 08:06:49;;;;;;;6.25;3.95;;;;;;;;;;5509624;26;20001;-85
2024/04/19 08:09:37;;;;;;;6.97;4.05;;;;;;;;;;5500258;26;20001;-82
2024/04/19 08:12:22;;;;;;;6.82;3.50;;;;;;;;;;5489100;26;20001;-83
2024/04/19 08:15:08;;;;;;;6.90;3.85;;;;;;;;;;5448856;26;20074;-80
2024/04/19 08:17:53;;;;;;;6.40;4.00;;;;;;;;;;5454460;26;20013;-81
2024/04/19 08:20:38;;;;;;;6.20;3.58;;;;;;;;;;5460239;26;20008;-80
2024/04/19 08:23:26;;;;;;;5.22;3.10;;;;;;;;;;5488093;26;19997;-80
2024/04/19 08:26:11;;;;;;;5.93;3.75;;;;;;;;;;5499977;26;20012;-81
2024/04/19 08:28:57;;;;;;;5.10;3.40;;;;;;;;;;5490217;26;20012;-83
2024/04/19 08:31:42;;;;;;;4.80;3.33;;;;;;;;;;5502599;26;20073;-82
2024/04/19 08:34:27;;;;;;;6.15;3.30;;;;;;;;;;5510400;26;20871;-81
2024/04/19 08:37:13;;;;;;;5.82;3.70;;;;;;;;;;5505716;26;20009;-79
2024/04/19 08:39:59;;;;;;;6.07;3.42;;;;;;;;;;5485184;26;19993;-83
2024/04/19 08:42:44;;;;;;;6.75;3.80;;;;;;;;;;5486362;26;19989;-82
2024/04/19 08:45:30;;;;;;;6.57;3.85;;;;;;;;;;5462740;26;19998;-82
2024/04/19 08:48:15;;;;;;;8.70;4.53;;;;;;;;;;5454131;26;20054;-82
2024/04/19 08:51:01;;;;;;;5.82;3.45;;;;;;;;;;5487565;26;20012;-82
2024/04/19 08:53:48;;;;;;;4.25;2.97;;;;;;;;;;5489603;26;19997;-82
2024/04/19 08:56:33;;;;;;;5.32;3.33;;;;;;;;;;5488922;26;20455;-82
2024/04/19 08:59:19;;;;;;;5.47;2.42;;;;;;;;;;5493877;26;20340;-82
2024/04/19 09:02:04;;;;;;;4.40;2.95;;;;;;;;;;5506354;26;19993;-81
2024/04/19 09:04:50;;;;;;;6.30;3.20;;;;;;;;;;5499071;26;20185;-81
2024/04/19 09:07:35;;;;;;;7.20;3.63;;;;;;;;;;5504931;26;19998;-83
2024/04/19 09:10:21;;;;;;;5.22;3.35;;;;;;;;;;5510488;26;19989;-83
2024/04/19 09:13:06;;;;;;;5.13;2.95;;;;;;;;;;5471301;26;20002;-82
2024/04/19 09:15:51;;;;;;;5.15;3.35;;;;;;;;;;5492036;26;20005;-82
2024/04/19 09:18:37;;;;;;;4.97;3.10;;;;;;;;;;5490169;26;19993;-81
2024/04/19 09:21:22;;;;;;;3.80;2.63;;;;;;;;;;5490013;26;20332;-82
2024/04/19 09:24:09;;;;;;;3.75;2.88;;;;;;;;;;5490250;26;20021;-83
2024/04/19 09:27:05;;;;;;;4.47;2.85;;;;;;;;;;5481614;26;19993;-83
2024/04/19 09:29:50;;;;;;;7.95;3.05;;;;;;;;;;5501664;26;19997;-83
2024/04/19 09:32:36;;;;;;;4.60;2.78;;;;;;;;;;5471899;26;20006;-84
2024/04/19 09:35:23;;;;;;;4.38;2.80;;;;;;;;;;5489268;26;20438;-84
2024/04/19 09:38:09;;;;;;;5.25;2.90;;;;;;;;;;5490274;26;20012;-85
2024/04/19 09:40:54;;;;;;;5.13;3.22;;;;;;;;;;5489892;26;20073;-84
2024/04/19 09:43:42;;;;;;;4.63;3.15;;;;;;;;;;5481828;26;20009;-79
2024/04/19 09:46:29;;;;;;;6.05;3.20;;;;;;;;;;5478899;26;20817;-80
2024/04/19 09:49:16;;;;;;;5.35;2.90;;;;;;;;;;5506184;26;20072;-81
2024/04/19 09:52:01;;;;;;;4.53;2.92;;;;;;;;;;5491074;26;19998;-81
2024/04/19 09:54:53;;;;;;;3.95;2.95;;;;;;;;;;5492813;26;20033;-80
2024/04/19 09:57:39;;;;;;;5.65;3.60;;;;;;;;;;5502965;26;20012;-80
2024/04/19 10:00:28;;;;;;;7.50;3.72;;;;;;;;;;5453624;26;19994;-82
2024/04/19 10:03:17;;;;;;;5.28;3.30;;;;;;;;;;5473763;26;19993;-82
2024/04/19 10:06:05;;;;;;;5.10;3.35;;;;;;;;;;5496051;26;20309;-82
2024/04/19 10:08:50;;;;;;;5.30;3.20;;;;;;;;;;5491563;26;20755;-80
2024/04/19 10:11:37;;;;;;;5.10;3.20;;;;;;;;;;5474603;26;20355;-78
2024/04/19 10:14:23;;;;;;;6.00;3.28;;;;;;;;;;5481434;26;20006;-80
2024/04/19 10:17:08;;;;;;;5.13;3.40;;;;;;;;;;5499777;26;19993;-77
2024/04/19 10:19:54;;;;;;;6.15;3.60;;;;;;;;;;5491425;26;20428;-77
2024/04/19 10:22:42;;;;;;;4.85;3.63;;;;;;;;;;5491643;26;20005;-77
2024/04/19 10:25:27;;;;;;;5.75;3.78;;;;;;;;;;5490790;26;19997;-78
2024/04/19 10:28:15;;;;;;;4.93;3.25;;;;;;;;;;5492189;26;20005;-77
2024/04/19 10:31:00;;;;;;;6.35;3.55;;;;;;;;;;5468727;26;19993;-78
2024/04/19 10:33:46;;;;;;;6.35;3.53;;;;;;;;;;5490824;26;20066;-78
2024/04/19 10:36:31;;;;;;;6.68;3.92;;;;;;;;;;5491098;26;20062;-77
2024/04/19 10:39:18;;;;;;;6.90;3.72;;;;;;;;;;5517565;26;20148;-77
2024/04/19 10:42:04;;;;;;;5.55;3.50;;;;;;;;;;5517320;26;19990;-79
2024/04/19 10:44:50;;;;;;;6.03;3.60;;;;;;;;;;5516455;26;20004;-78
2024/04/19 10:47:36;;;;;;;6.00;4.20;;;;;;;;;;5490960;26;20005;-78
2024/04/19 10:50:22;;;;;;;6.32;3.88;;;;;;;;;;5505134;26;19994;-78
2024/04/19 10:53:07;;;;;;;7.13;4.22;;;;;;;;;;5487748;26;20500;-77
2024/04/19 10:55:52;;;;;;;5.88;3.70;;;;;;;;;;5483616;26;20428;-78
2024/04/19 10:58:38;;;;;;;5.47;3.65;;;;;;;;;;5487671;26;20077;-78
2024/04/19 11:01:23;;;;;;;8.35;5.18;;;;;;;;;;5490959;26;20009;-78
2024/04/19 11:04:09;;;;;;;5.00;3.30;;;;;;;;;;5474355;26;20383;-78
2024/04/19 11:06:54;;;;;;;7.30;3.60;;;;;;;;;;5486168;26;20000;-79
2024/04/19 11:09:39;;;;;;;5.45;3.20;;;;;;;;;;5478625;26;20020;-80
2024/04/19 11:12:25;;;;;;;5.45;3.50;;;;;;;;;;5492814;26;20013;-81
2024/04/19 11:15:10;;;;;;;5.07;3.22;;;;;;;;;;5492361;26;20412;-81
2024/04/19 11:17:56;;;;;;;6.40;3.30;;;;;;;;;;5491786;26;20337;-81
2024/04/19 11:20:41;;;;;;;4.85;2.85;;;;;;;;;;5485706;26;19994;-80
2024/04/19 11:23:26;;;;;;;3.67;2.58;;;;;;;;;;5504828;26;19994;-81
2024/04/19 11:26:14;;;;;;;4.60;2.50;;;;;;;;;;5503475;26;19993;-80
2024/04/19 11:29:00;;;;;;;5.82;3.20;;;;;;;;;;5498846;26;20005;-81
2024/04/19 11:31:47;;;;;;;4.22;2.63;;;;;;;;;;5499298;26;20069;-81
2024/04/19 11:34:33;;;;;;;4.65;2.80;;;;;;;;;;5494189;26;19994;-81
2024/04/19 11:37:18;;;;;;;4.68;2.03;;;;;;;;;;5487938;26;20072;-82
2024/04/19 11:40:16;;;;;;;4.00;2.42;;;;;;;;;;5489248;26;20060;-81
2024/04/19 11:43:01;;;;;;;7.82;4.93;;;;;;;;;;5495160;26;19997;-81
2024/04/19 11:45:46;;;;;;;6.47;3.55;;;;;;;;;;5492479;26;20005;-77
2024/04/19 11:48:33;;;;;;;3.10;2.20;;;;;;;;;;5491257;26;20012;-79
2024/04/19 11:51:21;;;;;;;2.78;1.95;;;;;;;;;;5488203;26;20459;-80
2024/04/19 11:54:06;;;;;;;2.35;1.80;;;;;;;;;;5491902;26;20073;-80
2024/04/19 11:56:52;;;;;;;3.30;1.92;;;;;;;;;;5490084;26;20021;-81
2024/04/19 11:59:37;;;;;;;2.47;1.40;;;;;;;;;;5510949;26;20009;-82
2024/04/19 12:02:22;;;;;;;5.38;1.90;;;;;;;;;;5501888;26;20081;-79
2024/04/19 12:05:07;;;;;;;2.45;1.77;;;;;;;;;;5494189;26;20001;-81
2024/04/19 12:07:52;;;;;;;4.05;2.00;;;;;;;;;;5499505;26;20023;-80
2024/04/19 12:10:38;;;;;;;3.78;2.13;;;;;;;;;;5482331;26;19997;-80
2024/04/19 12:13:23;;;;;;;2.80;1.90;;;;;;;;;;5497395;26;20009;-80
2024/04/19 12:16:08;;;;;;;4.00;1.85;;;;;;;;;;5490694;26;20013;-80
2024/04/19 12:18:53;;;;;;;4.65;1.80;;;;;;;;;;5510295;26;20005;-79
2024/04/19 12:22:03;;;;;;;2.75;1.95;;;;;;;;;;5498092;26;20073;-79
2024/04/19 12:24:48;;;;;;;3.67;1.75;;;;;;;;;;5482153;25;20033;-80
2024/04/19 12:27:33;;;;;;;2.90;1.90;;;;;;;;;;5492557;26;20009;-82
2024/04/19 12:30:19;;;;;;;2.85;2.00;;;;;;;;;;5491149;26;20005;-81
2024/04/19 12:33:04;;;;;;;2.58;1.52;;;;;;;;;;5474707;26;20015;-81
2024/04/19 12:35:50;;;;;;;3.65;1.90;;;;;;;;;;5497034;26;20448;-79
2024/04/19 12:38:35;;;;;;;2.42;1.75;;;;;;;;;;5491350;26;20001;-80
2024/04/19 12:41:20;;;;;;;3.20;1.90;;;;;;;;;;5506169;26;20016;-77
2024/04/19 12:44:06;;;;;;;2.17;1.63;;;;;;;;;;5478921;26;19993;-77
2024/04/19 12:46:51;;;;;;;1.90;1.60;;;;;;;;;;5503801;26;20005;-78
2024/04/19 12:49:37;;;;;;;2.05;1.80;;;;;;;;;;5512055;26;19998;-78
2024/04/19 12:52:23;;;;;;;1.70;1.30;;;;;;;;;;5496103;26;20001;-78
2024/04/19 12:55:08;;;;;;;1.55;1.45;;;;;;;;;;5489958;26;20454;-78
2024/04/19 12:57:53;;;;;;;3.45;1.73;;;;;;;;;;5488879;26;20001;-77
2024/04/19 13:00:38;;;;;;;3.58;2.10;;;;;;;;;;5488180;26;20097;-77
2024/04/19 13:03:24;;;;;;;2.53;1.65;;;;;;;;;;5498952;26;20001;-78
2024/04/19 13:06:10;;;;;;;2.65;1.80;;;;;;;;;;5490407;26;20009;-77
2024/04/19 13:08:55;;;;;;;5.13;2.08;;;;;;;;;;5477916;26;20073;-77
2024/04/19 13:11:40;;;;;;;1.60;1.38;;;;;;;;;;5474552;26;20004;-75
2024/04/19 13:14:26;;;;;;;1.67;1.25;;;;;;;;;;5496356;26;20004;-77
2024/04/19 13:17:11;;;;;;;1.90;1.70;;;;;;;;;;5500982;26;20073;-76
2024/04/19 13:19:56;;;;;;;1.75;1.65;;;;;;;;;;5490471;26;20011;-76
2024/04/19 13:22:43;;;;;;;1.83;1.20;;;;;;;;;;5487270;26;20539;-76
2024/04/19 13:25:28;;;;;;;1.80;1.50;;;;;;;;;;5489168;26;20068;-77
2024/04/19 13:28:13;;;;;;;1.85;1.30;;;;;;;;;;5504666;26;20001;-77
2024/04/19 13:30:58;;;;;;;2.22;1.60;;;;;;;;;;5486392;26;19993;-77
2024/04/19 13:33:44;;;;;;;6.72;1.85;;;;;;;;;;5488973;26;19993;-77
2024/04/19 13:36:29;;;;;;;2.72;1.77;;;;;;;;;;5489074;26;20009;-77
2024/04/19 13:39:14;;;;;;;4.65;1.52;;;;;;;;;;5486834;26;20317;-76
2024/04/19 13:42:00;;;;;;;2.92;1.27;;;;;;;;;;5486904;26;20332;-77
2024/04/19 13:44:45;;;;;;;2.72;1.73;;;;;;;;;;5498348;26;20000;-77
2024/04/19 13:47:31;;;;;;;2.22;1.35;;;;;;;;;;5497401;26;19989;-77
2024/04/19 13:50:16;;;;;;;1.48;1.17;;;;;;;;;;5489005;26;20683;-78
2024/04/19 13:53:04;;;;;;;2.35;1.42;;;;;;;;;;5487722;26;19993;-78
2024/04/19 13:55:49;;;;;;;3.03;1.42;;;;;;;;;;5494365;26;20012;-77
2024/04/19 13:58:39;;;;;;;1.73;1.40;;;;;;;;;;5494473;26;19997;-79
2024/04/19 14:01:24;;;;;;;;;;;;;;;;;;5492026;26;20005;-78
2024/04/19 14:04:09;;;;;;;1.77;1.35;;;;;;;;;;5494579;26;20315;-77
2024/04/19 14:06:54;;;;;;;3.00;1.85;;;;;;;;;;5489824;26;20538;-78
2024/04/19 14:09:41;;;;;;;1.13;1.02;;;;;;;;;;5488401;26;20060;-78
2024/04/19 14:12:26;;;;;;;3.45;1.50;;;;;;;;;;5510146;26;20101;-79
2024/04/19 14:15:12;;;;;;;1.50;1.20;;;;;;;;;;5494001;26;20386;-80
2024/04/19 14:17:58;;;;;;;1.85;1.40;;;;;;;;;;5512124;25;19996;-77
2024/04/19 14:20:45;;;;;;;1.10;1.00;;;;;;;;;;5498483;26;20056;-78
2024/04/19 14:23:30;;;;;;;2.28;1.27;;;;;;;;;;5476371;26;20352;-75
2024/04/19 14:26:16;;;;;;;1.05;0.93;;;;;;;;;;5495180;26;20819;-76
2024/04/19 14:29:01;;;;;;;1.10;1.00;;;;;;;;;;5489084;26;19990;-76
2024/04/19 14:31:47;;;;;;;1.45;1.17;;;;;;;;;;5489538;26;21044;-76
2024/04/19 14:34:32;;;;;;;2.53;1.02;;;;;;;;;;5483360;26;20369;-76
2024/04/19 14:37:18;;;;;;;2.47;1.25;;;;;;;;;;5490566;26;20043;-77
2024/04/19 14:40:03;;;;;;;1.30;1.00;;;;;;;;;;5490162;26;19997;-78
2024/04/19 14:42:48;;;;;;;1.33;1.23;;;;;;;;;;5485631;26;20074;-77
2024/04/19 14:45:33;;;;;;;1.30;0.95;;;;;;;;;;5488887;26;19993;-77
2024/04/19 14:48:19;;;;;;;1.10;0.90;;;;;;;;;;5492189;26;20001;-78
2024/04/19 14:51:04;;;;;;;1.23;1.00;;;;;;;;;;5493176;26;20073;-77
2024/04/19 14:53:49;;;;;;;4.47;0.90;;;;;;;;;;5492272;26;19997;-77
2024/04/19 14:56:35;;;;;;;1.20;0.90;;;;;;;;;;5471584;26;20537;-79
2024/04/19 14:59:21;;;;;;;3.53;1.17;;;;;;;;;;5510795;26;20073;-77
2024/04/19 15:02:06;;;;;;;1.10;1.00;;;;;;;;;;5485417;26;20286;-80
2024/04/19 15:04:51;;;;;;;1.15;1.05;;;;;;;;;;5496069;26;20005;-81
2024/04/19 15:07:37;;;;;;;1.48;0.80;;;;;;;;;;5493391;26;19997;-81
2024/04/19 15:10:22;;;;;;;1.17;0.90;;;;;;;;;;5509704;26;19993;-81
2024/04/19 15:13:08;;;;;;;0.88;0.80;;;;;;;;;;5497087;26;19997;-81
2024/04/19 15:15:53;;;;;;;1.00;0.80;;;;;;;;;;5496054;26;20001;-81
2024/04/19 15:18:39;;;;;;;1.40;0.77;;;;;;;;;;5467924;26;19994;-81
2024/04/19 15:21:24;;;;;;;1.05;0.95;;;;;;;;;;5492559;26;20349;-80
2024/04/19 15:24:10;;;;;;;1.05;0.80;;;;;;;;;;5508426;26;19990;-81
2024/04/19 15:26:55;;;;;;;1.30;0.80;;;;;;;;;;5504016;26;19993;-80
2024/04/19 15:29:41;;;;;;;1.55;1.00;;;;;;;;;;5512306;26;20361;-80
2024/04/19 15:32:26;;;;;;;1.85;1.00;;;;;;;;;;5503392;26;19993;-80
2024/04/19 15:35:12;;;;;;;2.50;0.85;;;;;;;;;;5484276;26;20357;-80
2024/04/19 15:37:58;;;;;;;1.20;0.80;;;;;;;;;;5489159;26;20324;-79
2024/04/19 15:40:43;;;;;;;0.88;0.70;;;;;;;;;;5490155;26;20442;-80
2024/04/19 15:43:28;;;;;;;1.67;0.80;;;;;;;;;;5479228;26;20638;-79
2024/04/19 15:46:14;;;;;;;2.30;0.88;;;;;;;;;;5472393;26;19994;-79
2024/04/19 15:48:59;;;;;;;2.03;0.98;;;;;;;;;;5484483;26;20009;-79
2024/04/19 15:51:44;;;;;;;1.33;0.93;;;;;;;;;;5490061;26;19993;-78
2024/04/19 15:54:29;;;;;;;1.25;0.90;;;;;;;;;;5501885;26;19993;-77
2024/04/19 15:57:15;;;;;;;1.75;0.88;;;;;;;;;;5515391;26;19997;-78
2024/04/19 16:00:00;;;;;;;2.88;0.73;;;;;;;;;;5516094;26;20444;-78
2024/04/19 16:02:45;;;;;;;0.88;0.80;;;;;;;;;;5464640;26;20518;-79
2024/04/19 16:05:40;;;;;;;0.77;0.70;;;;;;;;;;5478513;26;20009;-79
2024/04/19 16:11:33;;;;;;;2.78;1.20;;;;;;;;;;5512543;26;20008;-80
2024/04/19 16:14:18;;;;;;;1.25;0.88;;;;;;;;;;5510829;26;20406;-84
2024/04/19 16:17:03;;;;;;;1.77;0.98;;;;;;;;;;5493396;26;20003;-80
2024/04/19 16:19:49;;;;;;;1.02;0.90;;;;;;;;;;5498263;25;20056;-80
2024/04/19 16:22:34;;;;;;;1.27;1.10;;;;;;;;;;5487200;26;19997;-79
2024/04/19 16:25:19;;;;;;;1.58;1.02;;;;;;;;;;5487757;26;20001;-79
2024/04/19 16:28:05;;;;;;;0.90;0.70;;;;;;;;;;5471291;26;20002;-79
2024/04/19 16:30:50;;;;;;;1.63;1.00;;;;;;;;;;5464993;26;20452;-78
2024/04/19 16:33:35;;;;;;;1.70;0.82;;;;;;;;;;5453016;26;20447;-79
2024/04/19 16:36:20;;;;;;;0.60;0.60;;;;;;;;;;5461834;26;20002;-80
2024/04/19 16:39:07;;;;;;;0.75;0.70;;;;;;;;;;5468804;26;19998;-79
2024/04/19 16:41:52;;;;;;;1.85;1.02;;;;;;;;;;5471497;26;20473;-79